sensor_id;sensor_type;location;lat;lon;timestamp;P1;durP1;ratioP1;P2;durP2;ratioP2
49177;SDS011;35016;55.674;37.468;2022-07-29T00:16:03;4.18;;;1.45;;
49177;SDS011;35016;55.674;37.468;2022-07-29T00:18:37;3.90;;;1.25;;
49177;SDS011;35016;55.674;37.468;2022-07-29T00:22:37;4.00;;;1.60;;
49177;SDS011;35016;55.674;37.468;2022-07-29T00:25:09;5.05;;;1.42;;
49177;SDS011;35016;55.674;37.468;2022-07-29T00:27:36;8.13;;;2.15;;
49177;SDS011;35016;55.674;37.468;2022-07-29T00:46:30;5.32;;;1.42;;
49177;SDS011;35016;55.674;37.468;2022-07-29T00:49:10;6.18;;;1.70;;
49177;SDS011;35016;55.674;37.468;2022-07-29T00:52:44;3.78;;;1.40;;
49177;SDS011;35016;55.674;37.468;2022-07-29T00:55:20;3.88;;;1.38;;
49177;SDS011;35016;55.674;37.468;2022-07-29T00:57:52;6.68;;;1.80;;
49177;SDS011;35016;55.674;37.468;2022-07-29T01:00:57;6.55;;;2.40;;
49177;SDS011;35016;55.674;37.468;2022-07-29T01:04:12;7.68;;;2.47;;
49177;SDS011;35016;55.674;37.468;2022-07-29T01:07:01;9.27;;;3.13;;
49177;SDS011;35016;55.674;37.468;2022-07-29T01:10:18;8.95;;;3.35;;
49177;SDS011;35016;55.674;37.468;2022-07-29T01:13:08;8.68;;;2.75;;
49177;SDS011;35016;55.674;37.468;2022-07-29T01:18:55;4.50;;;1.88;;
49177;SDS011;35016;55.674;37.468;2022-07-29T01:22:30;5.88;;;1.85;;
49177;SDS011;35016;55.674;37.468;2022-07-29T01:32:26;6.05;;;1.75;;
49177;SDS011;35016;55.674;37.468;2022-07-29T01:35:25;7.05;;;2.38;;
49177;SDS011;35016;55.674;37.468;2022-07-29T01:38:27;6.07;;;1.88;;
49177;SDS011;35016;55.674;37.468;2022-07-29T01:41:51;4.47;;;1.55;;
49177;SDS011;35016;55.674;37.468;2022-07-29T01:50:20;5.13;;;1.65;;
49177;SDS011;35016;55.674;37.468;2022-07-29T01:57:27;5.93;;;1.88;;
49177;SDS011;35016;55.674;37.468;2022-07-29T02:09:08;4.70;;;1.63;;
49177;SDS011;35016;55.674;37.468;2022-07-29T02:12:55;5.05;;;1.85;;
49177;SDS011;35016;55.674;37.468;2022-07-29T02:15:50;4.32;;;1.58;;
49177;SDS011;35016;55.674;37.468;2022-07-29T02:18:40;4.93;;;1.73;;
49177;SDS011;35016;55.674;37.468;2022-07-29T02:21:28;4.50;;;1.65;;
49177;SDS011;35016;55.674;37.468;2022-07-29T02:26:51;3.25;;;1.33;;
49177;SDS011;35016;55.674;37.468;2022-07-29T02:30:00;4.93;;;1.50;;
49177;SDS011;35016;55.674;37.468;2022-07-29T02:32:46;5.88;;;2.08;;
49177;SDS011;35016;55.674;37.468;2022-07-29T02:35:28;4.40;;;1.40;;
49177;SDS011;35016;55.674;37.468;2022-07-29T02:38:21;5.60;;;1.75;;
49177;SDS011;35016;55.674;37.468;2022-07-29T02:45:16;6.15;;;2.10;;
49177;SDS011;35016;55.674;37.468;2022-07-29T02:48:55;4.88;;;1.55;;
49177;SDS011;35016;55.674;37.468;2022-07-29T02:51:54;6.30;;;1.67;;
49177;SDS011;35016;55.674;37.468;2022-07-29T03:01:15;5.67;;;2.07;;
49177;SDS011;35016;55.674;37.468;2022-07-29T03:04:22;4.80;;;1.63;;
49177;SDS011;35016;55.674;37.468;2022-07-29T03:07:14;5.38;;;1.52;;
49177;SDS011;35016;55.674;37.468;2022-07-29T03:09:55;4.93;;;1.55;;
49177;SDS011;35016;55.674;37.468;2022-07-29T03:12:40;6.45;;;1.73;;
49177;SDS011;35016;55.674;37.468;2022-07-29T03:15:15;5.22;;;1.63;;
49177;SDS011;35016;55.674;37.468;2022-07-29T03:17:51;4.65;;;1.48;;
49177;SDS011;35016;55.674;37.468;2022-07-29T03:20:54;5.80;;;1.60;;
49177;SDS011;35016;55.674;37.468;2022-07-29T03:28:02;5.60;;;2.10;;
49177;SDS011;35016;55.674;37.468;2022-07-29T03:35:31;6.22;;;2.30;;
49177;SDS011;35016;55.674;37.468;2022-07-29T03:38:21;4.45;;;1.50;;
49177;SDS011;35016;55.674;37.468;2022-07-29T03:41:03;5.70;;;2.05;;
49177;SDS011;35016;55.674;37.468;2022-07-29T03:43:40;5.57;;;1.77;;
49177;SDS011;35016;55.674;37.468;2022-07-29T03:46:19;5.43;;;1.77;;
49177;SDS011;35016;55.674;37.468;2022-07-29T03:48:57;5.38;;;1.90;;
49177;SDS011;35016;55.674;37.468;2022-07-29T03:51:33;5.63;;;1.77;;
49177;SDS011;35016;55.674;37.468;2022-07-29T03:54:19;5.93;;;2.67;;
49177;SDS011;35016;55.674;37.468;2022-07-29T03:56:58;6.07;;;2.10;;
49177;SDS011;35016;55.674;37.468;2022-07-29T04:00:11;5.47;;;1.75;;
49177;SDS011;35016;55.674;37.468;2022-07-29T04:03:03;5.88;;;1.52;;
49177;SDS011;35016;55.674;37.468;2022-07-29T04:06:55;5.93;;;2.00;;
49177;SDS011;35016;55.674;37.468;2022-07-29T04:10:25;7.18;;;1.48;;
49177;SDS011;35016;55.674;37.468;2022-07-29T04:13:40;4.75;;;1.95;;
49177;SDS011;35016;55.674;37.468;2022-07-29T04:16:28;4.90;;;1.50;;
49177;SDS011;35016;55.674;37.468;2022-07-29T04:19:27;5.25;;;1.42;;
49177;SDS011;35016;55.674;37.468;2022-07-29T04:22:31;6.03;;;2.05;;
49177;SDS011;35016;55.674;37.468;2022-07-29T04:25:04;4.15;;;1.40;;
49177;SDS011;35016;55.674;37.468;2022-07-29T04:27:35;3.58;;;1.35;;
49177;SDS011;35016;55.674;37.468;2022-07-29T04:30:23;5.78;;;1.70;;
49177;SDS011;35016;55.674;37.468;2022-07-29T04:32:57;5.70;;;1.73;;
49177;SDS011;35016;55.674;37.468;2022-07-29T04:35:31;6.75;;;2.47;;
49177;SDS011;35016;55.674;37.468;2022-07-29T04:38:16;4.05;;;1.83;;
49177;SDS011;35016;55.674;37.468;2022-07-29T04:40:43;4.32;;;1.55;;
49177;SDS011;35016;55.674;37.468;2022-07-29T04:43:39;6.72;;;1.98;;
49177;SDS011;35016;55.674;37.468;2022-07-29T04:46:12;3.50;;;1.30;;
49177;SDS011;35016;55.674;37.468;2022-07-29T04:52:30;3.60;;;1.23;;
49177;SDS011;35016;55.674;37.468;2022-07-29T04:54:58;3.85;;;1.48;;
49177;SDS011;35016;55.674;37.468;2022-07-29T04:57:30;5.05;;;2.00;;
49177;SDS011;35016;55.674;37.468;2022-07-29T04:59:58;6.18;;;2.25;;
49177;SDS011;35016;55.674;37.468;2022-07-29T05:02:28;6.35;;;1.85;;
49177;SDS011;35016;55.674;37.468;2022-07-29T05:04:56;6.38;;;1.90;;
49177;SDS011;35016;55.674;37.468;2022-07-29T05:07:28;8.32;;;2.97;;
49177;SDS011;35016;55.674;37.468;2022-07-29T05:10:01;8.30;;;1.90;;
49177;SDS011;35016;55.674;37.468;2022-07-29T05:12:37;7.18;;;1.88;;
49177;SDS011;35016;55.674;37.468;2022-07-29T05:15:18;3.03;;;1.10;;
49177;SDS011;35016;55.674;37.468;2022-07-29T05:25:56;7.00;;;2.03;;
49177;SDS011;35016;55.674;37.468;2022-07-29T05:28:32;4.68;;;1.55;;
49177;SDS011;35016;55.674;37.468;2022-07-29T05:31:07;6.47;;;2.08;;
49177;SDS011;35016;55.674;37.468;2022-07-29T05:33:35;6.72;;;1.45;;
49177;SDS011;35016;55.674;37.468;2022-07-29T05:36:09;6.03;;;1.98;;
49177;SDS011;35016;55.674;37.468;2022-07-29T05:38:37;6.70;;;2.10;;
49177;SDS011;35016;55.674;37.468;2022-07-29T05:41:05;6.72;;;2.15;;
49177;SDS011;35016;55.674;37.468;2022-07-29T05:43:34;6.20;;;1.88;;
49177;SDS011;35016;55.674;37.468;2022-07-29T05:46:02;4.78;;;1.58;;
49177;SDS011;35016;55.674;37.468;2022-07-29T05:48:30;4.10;;;1.23;;
49177;SDS011;35016;55.674;37.468;2022-07-29T05:50:57;3.83;;;1.30;;
49177;SDS011;35016;55.674;37.468;2022-07-29T05:57:21;5.05;;;1.30;;
49177;SDS011;35016;55.674;37.468;2022-07-29T05:59:49;4.43;;;1.33;;
49177;SDS011;35016;55.674;37.468;2022-07-29T06:02:17;4.47;;;1.30;;
49177;SDS011;35016;55.674;37.468;2022-07-29T06:04:45;4.50;;;1.77;;
49177;SDS011;35016;55.674;37.468;2022-07-29T06:07:12;4.88;;;1.63;;
49177;SDS011;35016;55.674;37.468;2022-07-29T06:09:40;3.85;;;1.50;;
49177;SDS011;35016;55.674;37.468;2022-07-29T06:12:07;5.28;;;1.63;;
49177;SDS011;35016;55.674;37.468;2022-07-29T06:14:38;3.90;;;1.30;;
49177;SDS011;35016;55.674;37.468;2022-07-29T06:17:08;3.72;;;1.35;;
49177;SDS011;35016;55.674;37.468;2022-07-29T06:19:48;4.95;;;1.58;;
49177;SDS011;35016;55.674;37.468;2022-07-29T06:22:39;3.53;;;1.27;;
49177;SDS011;35016;55.674;37.468;2022-07-29T06:25:17;4.40;;;1.80;;
49177;SDS011;35016;55.674;37.468;2022-07-29T06:28:52;4.93;;;1.17;;
49177;SDS011;35016;55.674;37.468;2022-07-29T06:31:49;3.40;;;0.98;;
49177;SDS011;35016;55.674;37.468;2022-07-29T06:34:18;4.75;;;1.10;;
49177;SDS011;35016;55.674;37.468;2022-07-29T06:36:49;6.47;;;1.60;;
49177;SDS011;35016;55.674;37.468;2022-07-29T06:39:18;6.00;;;1.90;;
49177;SDS011;35016;55.674;37.468;2022-07-29T06:41:49;4.65;;;1.73;;
49177;SDS011;35016;55.674;37.468;2022-07-29T06:44:21;5.63;;;1.52;;
49177;SDS011;35016;55.674;37.468;2022-07-29T06:46:51;3.42;;;1.40;;
49177;SDS011;35016;55.674;37.468;2022-07-29T06:49:37;4.78;;;1.67;;
49177;SDS011;35016;55.674;37.468;2022-07-29T06:52:04;4.18;;;1.45;;
49177;SDS011;35016;55.674;37.468;2022-07-29T06:54:40;4.53;;;1.70;;
49177;SDS011;35016;55.674;37.468;2022-07-29T06:57:14;5.65;;;1.58;;
49177;SDS011;35016;55.674;37.468;2022-07-29T06:59:42;5.00;;;1.50;;
49177;SDS011;35016;55.674;37.468;2022-07-29T07:02:10;2.05;;;0.95;;
49177;SDS011;35016;55.674;37.468;2022-07-29T07:04:37;3.60;;;1.30;;
49177;SDS011;35016;55.674;37.468;2022-07-29T07:12:16;4.70;;;1.73;;
49177;SDS011;35016;55.674;37.468;2022-07-29T07:14:44;4.53;;;1.30;;
49177;SDS011;35016;55.674;37.468;2022-07-29T07:17:11;5.18;;;1.60;;
49177;SDS011;35016;55.674;37.468;2022-07-29T07:19:41;3.50;;;1.20;;
49177;SDS011;35016;55.674;37.468;2022-07-29T07:22:09;2.80;;;1.02;;
49177;SDS011;35016;55.674;37.468;2022-07-29T07:24:36;4.43;;;1.33;;
49177;SDS011;35016;55.674;37.468;2022-07-29T07:27:04;4.10;;;1.65;;
49177;SDS011;35016;55.674;37.468;2022-07-29T07:29:31;2.88;;;1.13;;
49177;SDS011;35016;55.674;37.468;2022-07-29T07:31:59;3.42;;;1.40;;
49177;SDS011;35016;55.674;37.468;2022-07-29T07:34:27;6.47;;;1.67;;
49177;SDS011;35016;55.674;37.468;2022-07-29T07:36:55;3.78;;;1.23;;
49177;SDS011;35016;55.674;37.468;2022-07-29T07:39:28;4.25;;;1.17;;
49177;SDS011;35016;55.674;37.468;2022-07-29T07:41:56;5.07;;;1.80;;
49177;SDS011;35016;55.674;37.468;2022-07-29T07:44:23;5.90;;;1.63;;
49177;SDS011;35016;55.674;37.468;2022-07-29T07:46:51;4.00;;;1.30;;
49177;SDS011;35016;55.674;37.468;2022-07-29T07:49:20;5.18;;;1.20;;
49177;SDS011;35016;55.674;37.468;2022-07-29T07:51:47;3.78;;;1.48;;
49177;SDS011;35016;55.674;37.468;2022-07-29T07:58:02;3.28;;;0.93;;
49177;SDS011;35016;55.674;37.468;2022-07-29T08:00:29;2.42;;;1.20;;
49177;SDS011;35016;55.674;37.468;2022-07-29T08:02:58;4.40;;;1.50;;
49177;SDS011;35016;55.674;37.468;2022-07-29T08:05:42;4.05;;;1.13;;
49177;SDS011;35016;55.674;37.468;2022-07-29T08:08:13;2.60;;;0.80;;
49177;SDS011;35016;55.674;37.468;2022-07-29T08:10:44;3.97;;;1.55;;
49177;SDS011;35016;55.674;37.468;2022-07-29T08:27:30;2.60;;;1.10;;
49177;SDS011;35016;55.674;37.468;2022-07-29T08:33:40;3.70;;;0.88;;
49177;SDS011;35016;55.674;37.468;2022-07-29T09:01:25;5.57;;;1.77;;
49177;SDS011;35016;55.674;37.468;2022-07-29T09:27:32;1.27;;;0.60;;
49177;SDS011;35016;55.674;37.468;2022-07-29T09:37:33;3.55;;;1.00;;
49177;SDS011;35016;55.674;37.468;2022-07-29T09:45:41;2.53;;;0.77;;
49177;SDS011;35016;55.674;37.468;2022-07-29T09:54:52;3.70;;;1.25;;
49177;SDS011;35016;55.674;37.468;2022-07-29T09:57:28;4.10;;;1.10;;
49177;SDS011;35016;55.674;37.468;2022-07-29T10:01:26;2.15;;;0.93;;
49177;SDS011;35016;55.674;37.468;2022-07-29T10:04:20;3.75;;;1.35;;
49177;SDS011;35016;55.674;37.468;2022-07-29T10:06:57;4.13;;;0.95;;
49177;SDS011;35016;55.674;37.468;2022-07-29T10:19:23;1.48;;;0.60;;
49177;SDS011;35016;55.674;37.468;2022-07-29T10:21:53;1.50;;;0.70;;
49177;SDS011;35016;55.674;37.468;2022-07-29T10:29:09;2.38;;;0.88;;
49177;SDS011;35016;55.674;37.468;2022-07-29T11:01:30;3.15;;;0.95;;
49177;SDS011;35016;55.674;37.468;2022-07-29T11:21:37;2.72;;;1.05;;
49177;SDS011;35016;55.674;37.468;2022-07-29T11:29:13;1.05;;;0.60;;
49177;SDS011;35016;55.674;37.468;2022-07-29T11:32:18;1.48;;;0.77;;
49177;SDS011;35016;55.674;37.468;2022-07-29T11:52:08;2.20;;;0.80;;
49177;SDS011;35016;55.674;37.468;2022-07-29T11:54:47;2.85;;;1.02;;
49177;SDS011;35016;55.674;37.468;2022-07-29T11:58:15;3.00;;;0.98;;
49177;SDS011;35016;55.674;37.468;2022-07-29T12:04:20;3.42;;;1.05;;
49177;SDS011;35016;55.674;37.468;2022-07-29T12:10:01;3.17;;;0.88;;
49177;SDS011;35016;55.674;37.468;2022-07-29T12:12:32;2.92;;;0.80;;
49177;SDS011;35016;55.674;37.468;2022-07-29T12:17:46;2.83;;;0.90;;
49177;SDS011;35016;55.674;37.468;2022-07-29T12:37:45;3.45;;;1.40;;
49177;SDS011;35016;55.674;37.468;2022-07-29T12:40:20;3.95;;;1.15;;
49177;SDS011;35016;55.674;37.468;2022-07-29T12:45:38;4.05;;;1.33;;
49177;SDS011;35016;55.674;37.468;2022-07-29T12:48:07;4.95;;;1.45;;
49177;SDS011;35016;55.674;37.468;2022-07-29T12:50:36;4.50;;;1.30;;
49177;SDS011;35016;55.674;37.468;2022-07-29T12:53:21;2.65;;;1.00;;
49177;SDS011;35016;55.674;37.468;2022-07-29T12:59:38;6.95;;;1.48;;
49177;SDS011;35016;55.674;37.468;2022-07-29T13:02:06;5.38;;;1.00;;
49177;SDS011;35016;55.674;37.468;2022-07-29T13:04:37;3.97;;;1.25;;
49177;SDS011;35016;55.674;37.468;2022-07-29T13:07:05;4.05;;;1.30;;
49177;SDS011;35016;55.674;37.468;2022-07-29T13:14:41;5.43;;;1.52;;
49177;SDS011;35016;55.674;37.468;2022-07-29T13:17:15;4.35;;;1.40;;
49177;SDS011;35016;55.674;37.468;2022-07-29T13:19:53;4.03;;;1.20;;
49177;SDS011;35016;55.674;37.468;2022-07-29T13:22:37;2.55;;;1.00;;
49177;SDS011;35016;55.674;37.468;2022-07-29T13:25:05;5.50;;;1.50;;
49177;SDS011;35016;55.674;37.468;2022-07-29T13:31:02;3.40;;;1.05;;
49177;SDS011;35016;55.674;37.468;2022-07-29T13:33:35;3.40;;;1.58;;
49177;SDS011;35016;55.674;37.468;2022-07-29T13:36:03;3.67;;;1.25;;
49177;SDS011;35016;55.674;37.468;2022-07-29T13:38:30;3.10;;;1.00;;
49177;SDS011;35016;55.674;37.468;2022-07-29T13:57:40;1.60;;;0.75;;
49177;SDS011;35016;55.674;37.468;2022-07-29T14:03:40;1.88;;;0.80;;
49177;SDS011;35016;55.674;37.468;2022-07-29T14:06:11;4.18;;;1.63;;
49177;SDS011;35016;55.674;37.468;2022-07-29T14:08:41;4.53;;;1.20;;
49177;SDS011;35016;55.674;37.468;2022-07-29T14:11:29;2.83;;;1.20;;
49177;SDS011;35016;55.674;37.468;2022-07-29T14:14:06;4.38;;;1.30;;
49177;SDS011;35016;55.674;37.468;2022-07-29T14:16:39;3.58;;;1.00;;
49177;SDS011;35016;55.674;37.468;2022-07-29T14:19:23;3.90;;;1.48;;
49177;SDS011;35016;55.674;37.468;2022-07-29T14:22:54;6.03;;;1.58;;
49177;SDS011;35016;55.674;37.468;2022-07-29T14:26:11;3.42;;;1.15;;
49177;SDS011;35016;55.674;37.468;2022-07-29T14:37:03;5.43;;;1.75;;
49177;SDS011;35016;55.674;37.468;2022-07-29T14:44:48;4.20;;;1.13;;
49177;SDS011;35016;55.674;37.468;2022-07-29T14:49:12;2.92;;;1.20;;
49177;SDS011;35016;55.674;37.468;2022-07-29T14:53:31;2.55;;;0.88;;
49177;SDS011;35016;55.674;37.468;2022-07-29T14:56:39;3.78;;;1.08;;
49177;SDS011;35016;55.674;37.468;2022-07-29T14:59:18;3.83;;;1.08;;
49177;SDS011;35016;55.674;37.468;2022-07-29T15:01:46;3.10;;;1.13;;
49177;SDS011;35016;55.674;37.468;2022-07-29T15:04:13;1.58;;;0.70;;
49177;SDS011;35016;55.674;37.468;2022-07-29T15:06:41;5.32;;;1.30;;
49177;SDS011;35016;55.674;37.468;2022-07-29T15:09:10;2.72;;;1.10;;
49177;SDS011;35016;55.674;37.468;2022-07-29T15:11:38;5.00;;;1.30;;
49177;SDS011;35016;55.674;37.468;2022-07-29T15:14:06;5.75;;;1.50;;
49177;SDS011;35016;55.674;37.468;2022-07-29T15:16:37;4.20;;;1.38;;
49177;SDS011;35016;55.674;37.468;2022-07-29T15:19:10;4.32;;;1.52;;
49177;SDS011;35016;55.674;37.468;2022-07-29T15:21:38;4.72;;;1.48;;
49177;SDS011;35016;55.674;37.468;2022-07-29T15:24:15;4.25;;;1.13;;
49177;SDS011;35016;55.674;37.468;2022-07-29T15:26:43;4.93;;;1.58;;
49177;SDS011;35016;55.674;37.468;2022-07-29T15:29:11;4.68;;;1.25;;
49177;SDS011;35016;55.674;37.468;2022-07-29T15:31:40;4.18;;;1.38;;
49177;SDS011;35016;55.674;37.468;2022-07-29T15:34:08;2.65;;;0.88;;
49177;SDS011;35016;55.674;37.468;2022-07-29T15:36:36;3.88;;;1.30;;
49177;SDS011;35016;55.674;37.468;2022-07-29T15:39:20;4.65;;;1.50;;
49177;SDS011;35016;55.674;37.468;2022-07-29T15:41:52;5.72;;;1.75;;
49177;SDS011;35016;55.674;37.468;2022-07-29T15:44:22;6.43;;;2.30;;
49177;SDS011;35016;55.674;37.468;2022-07-29T15:46:49;3.78;;;1.40;;
49177;SDS011;35016;55.674;37.468;2022-07-29T15:49:30;4.95;;;1.70;;
49177;SDS011;35016;55.674;37.468;2022-07-29T15:52:16;4.03;;;1.63;;
49177;SDS011;35016;55.674;37.468;2022-07-29T15:54:53;5.22;;;1.45;;
49177;SDS011;35016;55.674;37.468;2022-07-29T15:57:28;5.07;;;1.52;;
49177;SDS011;35016;55.674;37.468;2022-07-29T15:59:58;7.10;;;2.10;;
49177;SDS011;35016;55.674;37.468;2022-07-29T16:02:26;5.20;;;1.10;;
49177;SDS011;35016;55.674;37.468;2022-07-29T16:04:53;3.90;;;1.42;;
49177;SDS011;35016;55.674;37.468;2022-07-29T16:07:20;4.75;;;1.52;;
49177;SDS011;35016;55.674;37.468;2022-07-29T16:09:50;4.38;;;1.40;;
49177;SDS011;35016;55.674;37.468;2022-07-29T16:12:19;6.57;;;1.27;;
49177;SDS011;35016;55.674;37.468;2022-07-29T16:14:51;4.60;;;1.50;;
49177;SDS011;35016;55.674;37.468;2022-07-29T16:17:19;6.03;;;1.50;;
49177;SDS011;35016;55.674;37.468;2022-07-29T16:19:47;3.03;;;1.00;;
49177;SDS011;35016;55.674;37.468;2022-07-29T16:22:15;4.32;;;1.20;;
49177;SDS011;35016;55.674;37.468;2022-07-29T16:24:42;4.55;;;1.25;;
49177;SDS011;35016;55.674;37.468;2022-07-29T16:27:10;3.08;;;1.13;;
49177;SDS011;35016;55.674;37.468;2022-07-29T16:29:38;6.40;;;1.20;;
49177;SDS011;35016;55.674;37.468;2022-07-29T16:32:09;3.70;;;1.27;;
49177;SDS011;35016;55.674;37.468;2022-07-29T16:34:37;5.05;;;1.55;;
49177;SDS011;35016;55.674;37.468;2022-07-29T16:37:04;5.72;;;1.05;;
49177;SDS011;35016;55.674;37.468;2022-07-29T16:39:35;3.40;;;1.30;;
49177;SDS011;35016;55.674;37.468;2022-07-29T16:42:03;2.60;;;0.98;;
49177;SDS011;35016;55.674;37.468;2022-07-29T16:44:32;3.53;;;1.35;;
49177;SDS011;35016;55.674;37.468;2022-07-29T16:47:06;4.97;;;1.55;;
49177;SDS011;35016;55.674;37.468;2022-07-29T16:49:37;7.88;;;2.20;;
49177;SDS011;35016;55.674;37.468;2022-07-29T16:52:05;6.40;;;1.60;;
49177;SDS011;35016;55.674;37.468;2022-07-29T16:54:33;3.83;;;0.95;;
49177;SDS011;35016;55.674;37.468;2022-07-29T16:57:01;4.60;;;1.52;;
49177;SDS011;35016;55.674;37.468;2022-07-29T16:59:29;4.63;;;1.48;;
49177;SDS011;35016;55.674;37.468;2022-07-29T17:01:57;4.18;;;1.15;;
49177;SDS011;35016;55.674;37.468;2022-07-29T17:04:28;4.88;;;1.42;;
49177;SDS011;35016;55.674;37.468;2022-07-29T17:06:56;5.70;;;1.73;;
49177;SDS011;35016;55.674;37.468;2022-07-29T17:09:26;5.53;;;1.65;;
49177;SDS011;35016;55.674;37.468;2022-07-29T17:12:00;4.50;;;1.45;;
49177;SDS011;35016;55.674;37.468;2022-07-29T17:14:28;4.40;;;1.58;;
49177;SDS011;35016;55.674;37.468;2022-07-29T17:16:59;5.25;;;1.95;;
49177;SDS011;35016;55.674;37.468;2022-07-29T17:19:29;4.32;;;1.45;;
49177;SDS011;35016;55.674;37.468;2022-07-29T17:21:58;8.07;;;1.98;;
49177;SDS011;35016;55.674;37.468;2022-07-29T17:24:41;5.30;;;1.98;;
49177;SDS011;35016;55.674;37.468;2022-07-29T17:27:09;5.55;;;2.00;;
49177;SDS011;35016;55.674;37.468;2022-07-29T17:29:37;8.18;;;2.33;;
49177;SDS011;35016;55.674;37.468;2022-07-29T17:32:08;6.78;;;1.80;;
49177;SDS011;35016;55.674;37.468;2022-07-29T17:34:39;6.63;;;2.53;;
49177;SDS011;35016;55.674;37.468;2022-07-29T17:37:08;7.32;;;1.98;;
49177;SDS011;35016;55.674;37.468;2022-07-29T17:39:37;5.90;;;1.98;;
49177;SDS011;35016;55.674;37.468;2022-07-29T17:42:06;5.70;;;1.77;;
49177;SDS011;35016;55.674;37.468;2022-07-29T17:44:35;7.57;;;2.33;;
49177;SDS011;35016;55.674;37.468;2022-07-29T17:47:04;7.43;;;2.78;;
49177;SDS011;35016;55.674;37.468;2022-07-29T17:49:42;8.70;;;2.47;;
49177;SDS011;35016;55.674;37.468;2022-07-29T17:52:15;5.50;;;1.85;;
49177;SDS011;35016;55.674;37.468;2022-07-29T17:58:29;7.20;;;1.63;;
49177;SDS011;35016;55.674;37.468;2022-07-29T18:01:20;5.00;;;1.42;;
49177;SDS011;35016;55.674;37.468;2022-07-29T18:03:47;5.22;;;1.60;;
49177;SDS011;35016;55.674;37.468;2022-07-29T18:06:14;12.70;;;2.83;;
49177;SDS011;35016;55.674;37.468;2022-07-29T18:08:42;4.93;;;1.58;;
49177;SDS011;35016;55.674;37.468;2022-07-29T18:11:13;5.93;;;1.35;;
49177;SDS011;35016;55.674;37.468;2022-07-29T18:13:41;4.72;;;1.73;;
49177;SDS011;35016;55.674;37.468;2022-07-29T18:16:08;4.95;;;1.35;;
49177;SDS011;35016;55.674;37.468;2022-07-29T18:18:35;4.35;;;1.73;;
49177;SDS011;35016;55.674;37.468;2022-07-29T18:21:03;6.45;;;2.00;;
49177;SDS011;35016;55.674;37.468;2022-07-29T18:23:30;5.57;;;1.48;;
49177;SDS011;35016;55.674;37.468;2022-07-29T18:25:58;5.13;;;1.70;;
49177;SDS011;35016;55.674;37.468;2022-07-29T18:28:25;5.60;;;2.08;;
49177;SDS011;35016;55.674;37.468;2022-07-29T18:30:52;7.03;;;1.77;;
49177;SDS011;35016;55.674;37.468;2022-07-29T18:33:19;7.53;;;2.17;;
49177;SDS011;35016;55.674;37.468;2022-07-29T18:35:53;5.05;;;1.70;;
49177;SDS011;35016;55.674;37.468;2022-07-29T18:38:41;5.47;;;1.85;;
49177;SDS011;35016;55.674;37.468;2022-07-29T18:41:18;5.43;;;1.98;;
49177;SDS011;35016;55.674;37.468;2022-07-29T18:43:48;6.03;;;1.92;;
49177;SDS011;35016;55.674;37.468;2022-07-29T18:46:15;8.90;;;2.17;;
49177;SDS011;35016;55.674;37.468;2022-07-29T18:48:46;5.25;;;1.85;;
49177;SDS011;35016;55.674;37.468;2022-07-29T18:54:26;7.45;;;2.72;;
49177;SDS011;35016;55.674;37.468;2022-07-29T18:56:54;7.05;;;2.22;;
49177;SDS011;35016;55.674;37.468;2022-07-29T18:59:22;5.35;;;1.65;;
49177;SDS011;35016;55.674;37.468;2022-07-29T19:01:49;5.75;;;1.50;;
49177;SDS011;35016;55.674;37.468;2022-07-29T19:04:20;4.85;;;1.55;;
49177;SDS011;35016;55.674;37.468;2022-07-29T19:06:47;4.97;;;1.80;;
49177;SDS011;35016;55.674;37.468;2022-07-29T19:09:14;6.53;;;2.50;;
49177;SDS011;35016;55.674;37.468;2022-07-29T19:11:42;5.97;;;1.92;;
49177;SDS011;35016;55.674;37.468;2022-07-29T19:14:11;5.47;;;1.80;;
49177;SDS011;35016;55.674;37.468;2022-07-29T19:16:39;6.25;;;1.98;;
49177;SDS011;35016;55.674;37.468;2022-07-29T19:19:06;8.45;;;2.55;;
49177;SDS011;35016;55.674;37.468;2022-07-29T19:21:33;5.05;;;1.38;;
49177;SDS011;35016;55.674;37.468;2022-07-29T19:24:01;7.40;;;3.00;;
49177;SDS011;35016;55.674;37.468;2022-07-29T19:31:21;5.43;;;1.83;;
49177;SDS011;35016;55.674;37.468;2022-07-29T19:37:02;6.47;;;1.92;;
49177;SDS011;35016;55.674;37.468;2022-07-29T19:46:04;5.22;;;1.65;;
49177;SDS011;35016;55.674;37.468;2022-07-29T19:49:01;5.75;;;1.75;;
49177;SDS011;35016;55.674;37.468;2022-07-29T19:51:31;4.95;;;2.03;;
49177;SDS011;35016;55.674;37.468;2022-07-29T19:53:59;8.05;;;2.08;;
49177;SDS011;35016;55.674;37.468;2022-07-29T19:56:40;7.13;;;2.10;;
49177;SDS011;35016;55.674;37.468;2022-07-29T20:00:05;6.07;;;1.83;;
49177;SDS011;35016;55.674;37.468;2022-07-29T20:10:13;6.90;;;2.50;;
49177;SDS011;35016;55.674;37.468;2022-07-29T20:12:41;7.70;;;2.45;;
49177;SDS011;35016;55.674;37.468;2022-07-29T20:17:57;7.20;;;2.55;;
49177;SDS011;35016;55.674;37.468;2022-07-29T20:20:30;12.27;;;3.10;;
49177;SDS011;35016;55.674;37.468;2022-07-29T20:23:31;9.38;;;2.25;;
49177;SDS011;35016;55.674;37.468;2022-07-29T20:26:03;6.93;;;2.33;;
49177;SDS011;35016;55.674;37.468;2022-07-29T20:32:36;7.20;;;2.67;;
49177;SDS011;35016;55.674;37.468;2022-07-29T20:35:07;8.45;;;2.53;;
49177;SDS011;35016;55.674;37.468;2022-07-29T20:39:09;7.57;;;3.05;;
49177;SDS011;35016;55.674;37.468;2022-07-29T20:44:33;9.20;;;2.85;;
49177;SDS011;35016;55.674;37.468;2022-07-29T20:47:02;10.48;;;4.57;;
49177;SDS011;35016;55.674;37.468;2022-07-29T20:49:29;10.98;;;4.68;;
49177;SDS011;35016;55.674;37.468;2022-07-29T20:52:04;8.38;;;3.67;;
49177;SDS011;35016;55.674;37.468;2022-07-29T20:54:32;10.38;;;4.82;;
49177;SDS011;35016;55.674;37.468;2022-07-29T20:57:00;9.77;;;3.80;;
49177;SDS011;35016;55.674;37.468;2022-07-29T21:00:12;9.77;;;3.10;;
49177;SDS011;35016;55.674;37.468;2022-07-29T21:02:49;7.20;;;2.70;;
49177;SDS011;35016;55.674;37.468;2022-07-29T21:05:19;9.75;;;3.55;;
49177;SDS011;35016;55.674;37.468;2022-07-29T21:09:28;8.13;;;3.33;;
49177;SDS011;35016;55.674;37.468;2022-07-29T21:12:02;8.18;;;3.53;;
49177;SDS011;35016;55.674;37.468;2022-07-29T21:14:33;7.50;;;2.75;;
49177;SDS011;35016;55.674;37.468;2022-07-29T21:17:09;8.35;;;2.55;;
49177;SDS011;35016;55.674;37.468;2022-07-29T21:20:03;7.82;;;3.42;;
49177;SDS011;35016;55.674;37.468;2022-07-29T21:22:40;8.73;;;2.95;;
49177;SDS011;35016;55.674;37.468;2022-07-29T21:25:11;7.68;;;3.00;;
49177;SDS011;35016;55.674;37.468;2022-07-29T21:28:05;5.60;;;2.20;;
49177;SDS011;35016;55.674;37.468;2022-07-29T21:43:22;6.80;;;2.40;;
49177;SDS011;35016;55.674;37.468;2022-07-29T21:52:35;6.30;;;2.35;;
49177;SDS011;35016;55.674;37.468;2022-07-29T21:55:37;8.57;;;2.40;;
49177;SDS011;35016;55.674;37.468;2022-07-29T21:58:17;6.85;;;2.47;;
49177;SDS011;35016;55.674;37.468;2022-07-29T22:01:06;7.53;;;2.75;;
49177;SDS011;35016;55.674;37.468;2022-07-29T22:03:37;6.43;;;2.58;;
49177;SDS011;35016;55.674;37.468;2022-07-29T22:06:04;7.95;;;2.53;;
49177;SDS011;35016;55.674;37.468;2022-07-29T22:08:35;5.53;;;1.88;;
49177;SDS011;35016;55.674;37.468;2022-07-29T22:11:45;5.35;;;1.73;;
49177;SDS011;35016;55.674;37.468;2022-07-29T22:14:13;6.70;;;2.15;;
49177;SDS011;35016;55.674;37.468;2022-07-29T22:20:25;6.50;;;1.90;;
49177;SDS011;35016;55.674;37.468;2022-07-29T22:22:53;6.63;;;2.30;;
49177;SDS011;35016;55.674;37.468;2022-07-29T22:25:20;9.02;;;2.17;;
49177;SDS011;35016;55.674;37.468;2022-07-29T22:27:48;7.65;;;2.47;;
49177;SDS011;35016;55.674;37.468;2022-07-29T22:30:15;7.43;;;2.83;;
49177;SDS011;35016;55.674;37.468;2022-07-29T22:32:43;6.85;;;2.53;;
49177;SDS011;35016;55.674;37.468;2022-07-29T22:35:10;6.00;;;2.15;;